Time;durP1;ratioP1;P1;durP2;ratioP2;P2;SDS_P1;SDS_P2;PMS_P1;PMS_P2;Temp;Humidity;BMP_temperature;BMP_pressure;BME280_temperature;BME280_humidity;BME280_pressure;Samples;Min_cycle;Max_cycle;Signal;HPM_P1;HPM_P2
2022/04/30 00:00:35;;;;;;;14.80;8.00;;;;;;;5.95;nan;102964.13;5033886;28;20083;-51
2022/04/30 00:03:01;;;;;;;9.65;7.68;;;;;;;5.68;nan;102899.06;5033750;28;20461;-51
2022/04/30 00:05:32;;;;;;;11.52;7.78;;;;;;;5.55;nan;102880.50;5033787;28;20076;-52
2022/04/30 00:07:57;;;;;;;;;;;;;;;5.90;nan;102947.44;5033048;28;20034;-55
2022/04/30 00:10:23;;;;;;;13.15;8.57;;;;;;;5.49;nan;102868.19;5033996;28;19936;-52
2022/04/30 00:12:48;;;;;;;10.00;8.57;;;;;;;5.67;nan;102912.09;5032689;28;20541;-51
2022/04/30 00:15:14;;;;;;;9.07;8.10;;;;;;;5.48;nan;102883.84;5033767;28;20032;-51
2022/04/30 00:17:39;;;;;;;11.23;8.35;;;;;;;5.76;nan;102941.03;5032383;28;20374;-49
2022/04/30 00:20:06;;;;;;;12.20;8.60;;;;;;;5.73;nan;102940.06;5015947;28;20120;-49
2022/04/30 00:22:31;;;;;;;10.02;7.88;;;;;;;5.70;nan;102938.28;5033308;28;20160;-50
2022/04/30 00:24:56;;;;;;;11.98;8.20;;;;;;;5.40;nan;102894.09;5033709;28;20091;-49
2022/04/30 00:27:22;;;;;;;13.18;8.20;;;;;;;5.24;nan;102871.13;5033543;28;20591;-49
2022/04/30 00:29:47;;;;;;;12.38;7.85;;;;;;;5.22;nan;102864.13;5033636;28;20108;-48
2022/04/30 00:32:14;;;;;;;12.07;8.50;;;;;;;5.32;nan;102892.19;5033245;28;20041;-47
2022/04/30 00:34:40;;;;;;;9.98;8.40;;;;;;;5.53;nan;102950.13;5031902;28;20120;-48
2022/04/30 00:37:05;;;;;;;12.80;8.38;;;;;;;5.10;nan;102870.84;5032993;28;20679;-47
2022/04/30 00:39:31;;;;;;;11.95;7.97;;;;;;;5.46;nan;102928.19;5033159;28;20041;-47
2022/04/30 00:41:58;;;;;;;10.70;8.02;;;;;;;5.32;nan;102915.69;5033143;28;20141;-50
2022/04/30 00:44:23;;;;;;;12.95;8.10;;;;;;;5.28;nan;102916.47;5015480;28;20041;-48
2022/04/30 00:46:48;;;;;;;12.00;8.60;;;;;;;5.30;nan;102917.38;5033124;28;20087;-48
2022/04/30 00:49:14;;;;;;;10.90;7.80;;;;;;;5.37;nan;102932.34;5031983;28;20045;-46
2022/04/30 00:51:40;;;;;;;10.77;7.93;;;;;;;5.33;nan;102939.25;5033168;28;20468;-47
2022/04/30 00:54:07;;;;;;;15.93;7.88;;;;;;;5.35;nan;102920.97;5015047;28;20117;-51
2022/04/30 00:56:35;;;;;;;11.60;8.13;;;;;;;5.30;nan;102904.34;5032073;28;20029;-50
2022/04/30 00:59:06;;;;;;;11.00;8.68;;;;;;;5.32;nan;102913.06;5031287;28;20104;-48
2022/04/30 01:01:33;;;;;;;9.13;8.13;;;;;;;5.35;nan;102907.91;5014470;28;20136;-48
2022/04/30 01:03:58;;;;;;;12.23;7.78;;;;;;;5.32;nan;102903.50;5032817;28;20071;-50
2022/04/30 01:06:53;;;;;;;10.05;7.97;;;;;;;5.40;nan;102901.94;5032728;28;20059;-50
2022/04/30 01:09:24;;;;;;;11.30;7.45;;;;;;;5.45;nan;102904.66;5025163;28;20065;-51
2022/04/30 01:11:58;;;;;;;8.57;7.68;;;;;;;5.15;nan;102841.34;5032645;28;20060;-49
2022/04/30 01:14:29;;;;;;;10.63;8.02;;;;;;;5.17;nan;102847.50;5032652;28;20022;-46
2022/04/30 01:16:56;;;;;;;;;;;;;;;5.52;nan;102903.94;5033205;28;20035;-49
2022/04/30 01:19:23;;;;;;;9.25;7.10;;;;;;;5.49;nan;102896.03;5032797;28;19962;-47
2022/04/30 01:21:50;;;;;;;9.85;7.72;;;;;;;5.18;nan;102830.97;5015276;28;20117;-50
2022/04/30 01:24:27;;;;;;;9.82;8.60;;;;;;;5.59;nan;102906.72;5014863;28;20033;-49
2022/04/30 01:26:53;;;;;;;11.40;7.40;;;;;;;5.68;nan;102900.81;5015178;28;20029;-55
2022/04/30 01:29:20;;;;;;;11.63;8.13;;;;;;;5.42;nan;102848.03;5032483;28;20046;-51
2022/04/30 01:37:25;;;;;;;10.27;7.18;;;;;;;5.51;nan;102822.09;5032045;28;20144;-52
2022/04/30 01:40:03;;;;;;;12.30;7.05;;;;;;;5.94;nan;102888.28;5030242;28;20099;-51
2022/04/30 01:42:30;;;;;;;8.18;7.03;;;;;;;5.91;nan;102894.34;5031404;28;20060;-53
2022/04/30 01:44:57;;;;;;;9.82;7.15;;;;;;;5.57;nan;102831.78;5013720;28;20128;-54
2022/04/30 01:47:23;;;;;;;7.43;6.60;;;;;;;5.90;nan;102882.09;5031043;28;20055;-50
2022/04/30 01:49:49;;;;;;;14.75;8.43;;;;;;;5.86;nan;102892.47;5031596;28;20041;-53
2022/04/30 01:52:15;;;;;;;10.25;7.40;;;;;;;5.78;nan;102887.06;5031530;28;20040;-49
2022/04/30 01:54:40;;;;;;;9.48;6.80;;;;;;;5.72;nan;102896.53;5031418;28;20037;-53
2022/04/30 01:57:06;;;;;;;8.40;7.07;;;;;;;5.66;nan;102892.91;5013474;28;20400;-51
2022/04/30 01:59:31;;;;;;;10.07;7.28;;;;;;;5.59;nan;102878.00;5013711;28;20369;-54
2022/04/30 02:01:59;;;;;;;10.13;7.68;;;;;;;5.19;nan;102810.13;5030557;28;20029;-50
2022/04/30 02:04:25;;;;;;;8.93;7.43;;;;;;;5.13;nan;102803.88;5030272;28;20038;-50
2022/04/30 02:06:50;;;;;;;8.25;7.38;;;;;;;5.52;nan;102875.19;5029836;28;20067;-48
2022/04/30 02:09:17;;;;;;;10.30;7.70;;;;;;;5.42;nan;102868.94;5033496;28;20037;-52
2022/04/30 02:11:43;;;;;;;12.07;7.53;;;;;;;5.48;nan;102869.06;5017643;28;20037;-51
2022/04/30 02:14:11;;;;;;;11.02;7.57;;;;;;;5.26;nan;102826.78;5001103;28;20423;-47
2022/04/30 02:16:38;;;;;;;8.73;7.75;;;;;;;5.21;nan;102797.09;5035357;28;20038;-50
2022/04/30 02:19:06;;;;;;;11.55;7.40;;;;;;;5.62;nan;102877.16;5035133;28;20530;-51
2022/04/30 02:21:32;;;;;;;8.88;7.00;;;;;;;5.46;nan;102828.94;5035051;28;20460;-53
2022/04/30 02:23:58;;;;;;;10.30;7.60;;;;;;;5.83;nan;102874.97;5033862;28;20570;-54
2022/04/30 02:26:27;;;;;;;8.27;7.45;;;;;;;5.90;nan;102874.25;5017334;28;20065;-56
2022/04/30 02:28:57;;;;;;;10.38;8.02;;;;;;;5.99;nan;102869.22;5017724;28;20029;-49
2022/04/30 02:31:25;;;;;;;11.15;7.85;;;;;;;6.04;nan;102875.41;5035215;28;20033;-54
2022/04/30 02:33:51;;;;;;;9.27;8.02;;;;;;;6.14;nan;102872.09;5017443;28;20052;-48
2022/04/30 02:36:17;;;;;;;12.52;7.40;;;;;;;5.87;nan;102813.22;5035202;28;20079;-49
2022/04/30 02:38:43;;;;;;;9.98;7.70;;;;;;;6.22;nan;102869.63;5035011;28;20126;-52
2022/04/30 02:41:08;;;;;;;9.45;7.88;;;;;;;6.25;nan;102863.59;5034921;28;20097;-50
2022/04/30 02:43:33;;;;;;;11.52;7.60;;;;;;;5.69;nan;102758.88;5034883;28;20056;-51
2022/04/30 02:45:59;;;;;;;8.60;7.53;;;;;;;5.62;nan;102743.94;5017182;28;20035;-50
2022/04/30 02:48:25;;;;;;;9.70;7.65;;;;;;;6.34;nan;102864.59;5034672;28;20333;-51
2022/04/30 02:50:53;;;;;;;8.70;7.63;;;;;;;6.31;nan;102856.72;5034703;28;20284;-51
2022/04/30 02:53:19;;;;;;;10.95;7.13;;;;;;;6.35;nan;102860.25;5033016;28;20029;-48
2022/04/30 02:55:44;;;;;;;7.97;6.57;;;;;;;6.09;nan;102802.28;5033224;28;20377;-47
2022/04/30 03:00:53;;;;;;;7.70;6.55;;;;;;;6.48;nan;102863.09;5019689;28;20056;-50
2022/04/30 03:03:20;;;;;;;8.20;7.32;;;;;;;6.51;nan;102855.28;5034636;28;20117;-47
2022/04/30 03:05:48;;;;;;;11.60;6.35;;;;;;;6.50;nan;102853.56;5016681;28;20499;-51
2022/04/30 03:08:19;;;;;;;7.55;6.75;;;;;;;6.49;nan;102864.88;5034304;28;20484;-51
2022/04/30 03:10:46;;;;;;;8.98;7.10;;;;;;;6.50;nan;102855.28;5034132;28;20095;-48
2022/04/30 03:13:18;;;;;;;7.80;6.72;;;;;;;6.47;nan;102844.78;5034154;28;20092;-52
2022/04/30 03:15:44;;;;;;;9.20;7.10;;;;;;;6.55;nan;102845.78;5033912;28;20388;-49
2022/04/30 03:23:37;;;;;;;8.30;6.45;;;;;;;6.31;nan;102786.09;5032960;28;20037;-51
2022/04/30 03:26:03;;;;;;;;;;;;;;;6.69;nan;102841.63;5034692;28;20026;-50
2022/04/30 03:28:28;;;;;;;7.70;6.63;;;;;;;6.70;nan;102846.00;5032973;28;20280;-56
2022/04/30 03:30:53;;;;;;;8.40;6.55;;;;;;;6.71;nan;102846.03;5034071;28;20034;-55
2022/04/30 03:33:19;;;;;;;7.80;6.97;;;;;;;6.74;nan;102837.38;5034065;28;20037;-52
2022/04/30 03:35:44;;;;;;;9.63;6.38;;;;;;;6.65;nan;102830.25;5016164;28;20503;-50
2022/04/30 03:38:10;;;;;;;10.27;7.05;;;;;;;6.75;nan;102826.91;5033781;28;20148;-51
2022/04/30 03:40:38;;;;;;;8.50;6.53;;;;;;;6.48;nan;102776.75;5016484;28;20052;-54
2022/04/30 03:43:04;;;;;;;8.82;6.65;;;;;;;6.72;nan;102818.13;5033769;28;20045;-50
2022/04/30 03:45:29;;;;;;;9.55;7.03;;;;;;;6.83;nan;102829.63;5033898;28;20095;-49
2022/04/30 03:47:55;;;;;;;8.77;6.85;;;;;;;6.87;nan;102827.94;5033567;28;20064;-50
2022/04/30 03:50:20;;;;;;;7.82;7.03;;;;;;;6.86;nan;102840.13;5033860;28;20029;-52
2022/04/30 03:52:46;;;;;;;10.77;7.03;;;;;;;6.90;nan;102827.97;5033641;28;20608;-52
2022/04/30 03:55:14;;;;;;;8.85;6.68;;;;;;;6.94;nan;102827.19;5033730;28;20029;-54
2022/04/30 03:57:39;;;;;;;7.30;6.60;;;;;;;6.59;nan;102751.66;5015951;28;20033;-53
2022/04/30 04:00:05;;;;;;;8.27;6.57;;;;;;;6.59;nan;102742.94;5015880;28;20037;-51
2022/04/30 04:02:31;;;;;;;10.63;6.82;;;;;;;6.98;nan;102819.38;5033411;28;20033;-49
2022/04/30 04:04:56;;;;;;;6.47;5.85;;;;;;;7.04;nan;102815.94;5033546;28;20037;-53
2022/04/30 04:07:22;;;;;;;9.50;6.88;;;;;;;7.07;nan;102813.38;5015566;28;20046;-52
2022/04/30 04:09:47;;;;;;;10.65;7.22;;;;;;;7.07;nan;102818.63;5033643;28;20064;-52
2022/04/30 04:12:14;;;;;;;9.15;6.57;;;;;;;7.11;nan;102828.28;5015848;28;20034;-50
2022/04/30 04:20:27;;;;;;;8.82;6.93;;;;;;;7.18;nan;102831.00;5024236;28;20041;-49
2022/04/30 04:22:53;;;;;;;10.43;6.50;;;;;;;6.94;nan;102788.78;5033024;28;20160;-52
2022/04/30 04:28:02;;;;;;;7.88;6.90;;;;;;;7.23;nan;102839.81;5033319;28;20064;-49
2022/04/30 04:30:29;;;;;;;10.18;7.22;;;;;;;7.23;nan;102855.53;5033099;28;20386;-50
2022/04/30 04:32:55;;;;;;;9.45;7.80;;;;;;;7.28;nan;102838.13;5031859;28;20464;-51
2022/04/30 04:35:21;;;;;;;9.95;7.25;;;;;;;7.18;nan;102819.66;5015320;28;20116;-51
2022/04/30 04:37:46;;;;;;;11.10;7.57;;;;;;;7.27;nan;102843.31;5031216;28;20143;-49
2022/04/30 04:40:13;;;;;;;14.20;7.63;;;;;;;7.35;nan;102844.31;5031343;28;20039;-49
2022/04/30 04:42:40;;;;;;;7.88;6.50;;;;;;;7.36;nan;102833.84;5032806;28;20099;-49
2022/04/30 04:45:07;;;;;;;11.40;6.53;;;;;;;7.29;nan;102842.50;5032629;28;20044;-51
2022/04/30 04:47:34;;;;;;;9.30;6.40;;;;;;;7.40;nan;102839.13;5014957;28;20152;-52
2022/04/30 04:50:00;;;;;;;9.35;6.22;;;;;;;7.12;nan;102791.63;5032535;28;20045;-54
2022/04/30 04:52:26;;;;;;;6.85;6.15;;;;;;;7.41;nan;102843.53;5015118;28;20457;-51
2022/04/30 04:54:52;;;;;;;6.60;5.93;;;;;;;7.32;nan;102829.44;5032295;28;20495;-53
2022/04/30 04:57:17;;;;;;;7.05;5.97;;;;;;;7.44;nan;102854.03;5032016;28;20037;-53
2022/04/30 04:59:42;;;;;;;12.75;6.30;;;;;;;6.75;nan;102735.31;5032533;28;20076;-51
2022/04/30 05:02:08;;;;;;;7.85;6.50;;;;;;;7.38;nan;102839.97;5032309;28;20041;-51
2022/04/30 05:04:34;;;;;;;9.32;6.70;;;;;;;7.23;nan;102817.97;5031986;28;20048;-53
2022/04/30 05:07:00;;;;;;;12.77;7.13;;;;;;;7.50;nan;102859.34;5032375;28;20057;-46
2022/04/30 05:09:30;;;;;;;7.18;6.03;;;;;;;7.55;nan;102866.41;5032116;28;20029;-49
2022/04/30 05:11:56;;;;;;;9.13;7.00;;;;;;;7.30;nan;102810.19;5014832;28;20029;-49
2022/04/30 05:14:22;;;;;;;8.57;7.03;;;;;;;7.59;nan;102862.09;5032189;28;20439;-53
2022/04/30 05:16:47;;;;;;;10.85;7.28;;;;;;;7.62;nan;102856.84;5031943;28;20033;-52
2022/04/30 05:19:13;;;;;;;7.03;6.10;;;;;;;7.58;nan;102861.22;5031735;28;20037;-52
2022/04/30 05:21:38;;;;;;;7.53;6.65;;;;;;;7.48;nan;102834.84;5030349;28;20041;-49
2022/04/30 05:24:04;;;;;;;8.90;6.18;;;;;;;7.62;nan;102852.50;5031586;28;20052;-50
2022/04/30 05:26:29;;;;;;;7.55;6.85;;;;;;;7.62;nan;102860.38;5031925;28;20410;-50
2022/04/30 05:28:54;;;;;;;8.50;6.22;;;;;;;7.35;nan;102802.41;5031542;28;20037;-51
2022/04/30 05:31:20;;;;;;;9.68;7.03;;;;;;;7.35;nan;102808.50;5031505;28;20477;-50
2022/04/30 05:33:45;;;;;;;7.85;6.63;;;;;;;7.59;nan;102841.97;5031701;28;20504;-49
2022/04/30 05:36:10;;;;;;;9.27;7.35;;;;;;;7.71;nan;102854.34;5031368;28;20517;-50
2022/04/30 05:38:36;;;;;;;9.98;6.93;;;;;;;7.71;nan;102860.47;5013811;28;20065;-47
2022/04/30 05:41:02;;;;;;;11.75;7.53;;;;;;;7.75;nan;102864.00;5014159;28;20044;-52
2022/04/30 05:43:27;;;;;;;9.32;7.47;;;;;;;7.51;nan;102806.94;5014028;28;20112;-48
2022/04/30 05:45:53;;;;;;;10.32;7.20;;;;;;;7.83;nan;102852.75;5031557;28;20195;-49
2022/04/30 05:48:18;;;;;;;11.13;7.18;;;;;;;7.86;nan;102865.00;5031773;28;20045;-51
2022/04/30 05:50:44;;;;;;;8.98;7.35;;;;;;;7.88;nan;102855.44;5031511;28;20099;-52
2022/04/30 05:53:10;;;;;;;8.75;6.90;;;;;;;7.92;nan;102842.38;5031437;28;20144;-49
2022/04/30 05:55:35;;;;;;;7.97;7.18;;;;;;;7.72;nan;102801.06;5031823;28;20372;-49
2022/04/30 05:58:01;;;;;;;9.00;6.93;;;;;;;7.96;nan;102826.66;5013759;28;20041;-50
2022/04/30 06:00:26;;;;;;;11.35;7.07;;;;;;;7.71;nan;102791.44;5030403;28;20044;-52
2022/04/30 06:02:51;;;;;;;9.32;6.78;;;;;;;8.09;nan;102842.53;5030104;28;20102;-51
2022/04/30 06:05:17;;;;;;;7.80;6.82;;;;;;;7.77;nan;102776.66;5031224;28;20029;-47
2022/04/30 06:07:42;;;;;;;12.65;6.28;;;;;;;8.22;nan;102840.91;5030118;28;20468;-49
2022/04/30 06:10:08;;;;;;;12.93;7.45;;;;;;;7.88;nan;102780.25;5031203;28;20040;-51
2022/04/30 06:12:36;;;;;;;8.63;6.57;;;;;;;8.25;nan;102833.06;5031231;28;20061;-47
2022/04/30 06:15:02;;;;;;;8.95;7.18;;;;;;;8.03;nan;102787.38;5013606;28;20369;-52
2022/04/30 06:17:28;;;;;;;7.90;6.82;;;;;;;8.47;nan;102851.66;5031243;28;20112;-49
2022/04/30 06:19:53;;;;;;;8.02;6.32;;;;;;;8.57;nan;102856.97;4997029;28;20128;-50
2022/04/30 06:22:18;;;;;;;10.93;6.25;;;;;;;8.65;nan;102863.16;5031389;28;20049;-49
2022/04/30 06:24:44;;;;;;;10.73;5.93;;;;;;;8.70;nan;102861.47;5031579;28;20038;-50
2022/04/30 06:27:09;;;;;;;7.50;5.63;;;;;;;8.48;nan;102827.16;5031319;28;20084;-50
2022/04/30 06:29:35;;;;;;;7.85;6.82;;;;;;;8.23;nan;102793.66;5031247;28;20033;-47
2022/04/30 06:32:01;;;;;;;7.57;6.78;;;;;;;8.64;nan;102877.16;5031303;28;20396;-47
2022/04/30 06:34:26;;;;;;;10.40;6.28;;;;;;;8.63;nan;102868.41;5031037;28;20068;-47
2022/04/30 06:36:52;;;;;;;7.07;6.22;;;;;;;8.64;nan;102861.41;5031242;28;20499;-51
2022/04/30 06:39:17;;;;;;;7.68;5.95;;;;;;;8.64;nan;102861.41;5031078;28;20041;-47
2022/04/30 06:41:43;;;;;;;8.27;6.72;;;;;;;8.65;nan;102863.16;5031148;28;20037;-52
2022/04/30 06:44:08;;;;;;;7.35;6.22;;;;;;;8.29;nan;102798.16;5031140;28;20038;-49
2022/04/30 06:46:33;;;;;;;7.32;6.38;;;;;;;8.42;nan;102803.50;5031157;28;20055;-47
2022/04/30 06:48:59;;;;;;;7.43;6.45;;;;;;;8.60;nan;102815.88;5013164;28;20034;-52
2022/04/30 06:51:24;;;;;;;9.10;6.57;;;;;;;8.91;nan;102835.31;5013159;28;20045;-50
2022/04/30 06:59:18;;;;;;;7.55;5.93;;;;;;;9.72;nan;102865.50;5035055;28;20094;-50
2022/04/30 07:01:51;;;;;;;7.82;6.20;;;;;;;9.92;nan;102867.34;5033863;28;20504;-50
2022/04/30 07:04:17;;;;;;;8.25;5.72;;;;;;;10.10;nan;102872.59;5034641;28;20073;-52
2022/04/30 07:06:43;;;;;;;7.47;6.13;;;;;;;10.16;nan;102869.13;5034745;28;20447;-51
2022/04/30 07:09:08;;;;;;;7.45;5.65;;;;;;;10.23;nan;102863.03;5034318;28;20044;-50
2022/04/30 07:11:34;;;;;;;8.80;5.57;;;;;;;9.95;nan;102804.16;5016742;28;20055;-49
2022/04/30 07:14:00;;;;;;;9.27;5.72;;;;;;;10.23;nan;102836.69;5033207;28;20117;-50
2022/04/30 07:16:25;;;;;;;7.85;5.70;;;;;;;10.39;nan;102870.03;5007248;28;20076;-54
2022/04/30 07:18:50;;;;;;;6.28;5.53;;;;;;;10.43;nan;102863.91;4997155;28;20040;-53
2022/04/30 07:21:16;;;;;;;7.28;4.75;;;;;;;10.27;nan;102864.78;5014736;28;20434;-50
2022/04/30 07:23:42;;;;;;;5.38;4.40;;;;;;;10.45;nan;102867.41;5013131;28;20379;-51
2022/04/30 07:26:07;;;;;;;6.40;5.32;;;;;;;10.61;nan;102866.56;5014284;28;20030;-51
2022/04/30 07:28:35;;;;;;;7.13;4.43;;;;;;;10.74;nan;102867.41;5014417;28;20034;-51
2022/04/30 07:31:09;;;;;;;10.25;3.75;;;;;;;11.04;nan;102875.25;5014229;28;20041;-52
2022/04/30 07:33:35;;;;;;;5.50;3.88;;;;;;;11.20;nan;102813.75;5014326;28;20036;-48
2022/04/30 07:36:00;;;;;;;8.55;4.20;;;;;;;11.94;nan;102811.63;5014338;28;20490;-50
2022/04/30 07:38:25;;;;;;;5.90;2.85;;;;;;;12.59;nan;102835.72;5014362;28;20064;-50
2022/04/30 07:40:52;;;;;;;4.47;3.05;;;;;;;13.21;nan;102890.66;5014095;28;20129;-52
2022/04/30 07:43:17;;;;;;;3.92;3.08;;;;;;;13.41;nan;102891.31;5029652;28;20080;-54
2022/04/30 07:45:43;;;;;;;4.75;2.78;;;;;;;14.07;nan;102878.94;5033591;28;20037;-51
2022/04/30 07:48:08;;;;;;;4.00;2.70;;;;;;;14.50;nan;102900.41;5032573;28;20492;-46
2022/04/30 07:50:36;;;;;;;6.38;3.10;;;;;;;14.15;nan;102897.41;5033205;28;20033;-53
2022/04/30 07:53:05;;;;;;;4.00;2.90;;;;;;;13.94;nan;102901.22;5033054;28;20099;-56
2022/04/30 07:55:31;;;;;;;3.83;2.85;;;;;;;14.29;nan;102883.94;5033577;28;20065;-51
2022/04/30 07:57:57;;;;;;;3.40;2.92;;;;;;;14.91;nan;102897.06;5033349;28;20436;-51
2022/04/30 08:00:23;;;;;;;5.28;3.20;;;;;;;15.69;nan;102856.63;5015618;28;20040;-52
2022/04/30 08:02:49;;;;;;;4.32;2.92;;;;;;;16.56;nan;102895.34;5033134;28;20550;-51
2022/04/30 08:05:14;;;;;;;4.18;2.88;;;;;;;16.15;nan;102828.09;5032279;28;20038;-56
2022/04/30 08:07:40;;;;;;;4.68;2.92;;;;;;;15.90;nan;102893.34;5032325;28;20456;-54
2022/04/30 08:10:06;;;;;;;5.88;3.15;;;;;;;14.96;nan;102831.56;5032779;28;20033;-52
2022/04/30 08:12:31;;;;;;;3.40;3.10;;;;;;;14.26;nan;102897.22;5032890;28;20087;-50
2022/04/30 08:14:56;;;;;;;5.65;3.33;;;;;;;12.86;nan;102824.91;5031963;28;20045;-51
2022/04/30 08:17:22;;;;;;;3.90;3.33;;;;;;;12.28;nan;102814.00;5032841;28;20041;-49
2022/04/30 08:19:48;;;;;;;4.00;3.00;;;;;;;11.71;nan;102819.66;5033082;28;20388;-53
2022/04/30 08:22:13;;;;;;;5.45;3.58;;;;;;;12.15;nan;102883.63;5015235;28;20041;-53
2022/04/30 08:24:39;;;;;;;4.38;3.15;;;;;;;12.65;nan;102875.31;5033066;28;20428;-50
2022/04/30 08:27:05;;;;;;;3.55;2.53;;;;;;;12.98;nan;102874.13;5014828;28;20075;-49
2022/04/30 08:29:30;;;;;;;5.60;2.95;;;;;;;12.77;nan;102861.09;5032347;28;20488;-49
2022/04/30 08:31:56;;;;;;;5.95;3.17;;;;;;;13.26;nan;102874.72;5032992;28;20075;-49
2022/04/30 08:34:22;;;;;;;3.47;2.58;;;;;;;13.92;nan;102880.97;5032413;28;20060;-51
2022/04/30 08:36:49;;;;;;;6.00;3.60;;;;;;;13.89;nan;102798.94;4997828;28;20037;-51
2022/04/30 08:39:15;;;;;;;2.92;2.60;;;;;;;14.71;nan;102816.13;5014795;28;20060;-52
2022/04/30 08:41:42;;;;;;;5.72;3.20;;;;;;;15.30;nan;102876.84;5032061;28;20046;-56
2022/04/30 08:44:13;;;;;;;3.90;2.45;;;;;;;14.97;nan;102874.88;5014679;28;20033;-52
2022/04/30 08:46:39;;;;;;;5.70;3.00;;;;;;;14.96;nan;102878.41;5015501;28;20033;-54
2022/04/30 08:49:05;;;;;;;4.22;3.10;;;;;;;14.64;nan;102882.50;5030824;28;20516;-50
2022/04/30 08:51:31;;;;;;;3.20;2.65;;;;;;;13.72;nan;102822.97;5032709;28;20124;-53
2022/04/30 08:53:56;;;;;;;4.80;3.05;;;;;;;13.10;nan;102818.50;5032118;28;20398;-50
2022/04/30 08:56:21;;;;;;;3.17;2.88;;;;;;;12.98;nan;102860.91;5031034;28;20083;-56
2022/04/30 08:58:47;;;;;;;4.72;3.17;;;;;;;12.06;nan;102811.50;5031948;28;20176;-51
2022/04/30 09:01:12;;;;;;;3.63;3.30;;;;;;;11.79;nan;102860.09;5017169;28;20060;-52
2022/04/30 09:03:38;;;;;;;3.97;3.35;;;;;;;11.47;nan;102859.34;5031454;28;20029;-48
2022/04/30 09:06:04;;;;;;;4.80;3.28;;;;;;;11.29;nan;102858.50;5014403;28;20104;-51
2022/04/30 09:08:30;;;;;;;5.95;3.67;;;;;;;11.28;nan;102859.41;5013990;28;20064;-49
2022/04/30 09:11:07;;;;;;;5.20;4.18;;;;;;;10.94;nan;102788.34;5014404;28;20465;-49
2022/04/30 09:13:41;;;;;;;6.03;3.63;;;;;;;11.13;nan;102862.06;5031903;28;20192;-53
2022/04/30 09:16:20;;;;;;;4.60;3.75;;;;;;;11.09;nan;102833.09;5030493;28;20022;-49
2022/04/30 09:18:46;;;;;;;5.70;4.20;;;;;;;11.20;nan;102836.59;5030134;28;20136;-49
2022/04/30 09:21:16;;;;;;;4.15;3.22;;;;;;;11.10;nan;102834.84;5014043;28;20500;-52
2022/04/30 09:23:42;;;;;;;4.85;3.70;;;;;;;11.04;nan;102837.50;5031587;28;20037;-47
2022/04/30 09:26:08;;;;;;;4.47;3.60;;;;;;;10.97;nan;102839.28;5030780;28;20537;-50
2022/04/30 09:28:38;;;;;;;6.43;4.38;;;;;;;11.19;nan;102838.34;5031829;28;20452;-50
2022/04/30 09:31:11;;;;;;;5.22;3.85;;;;;;;10.87;nan;102773.41;5031577;28;20052;-49
2022/04/30 09:33:44;;;;;;;4.30;3.50;;;;;;;11.11;nan;102848.03;5029968;28;20041;-50
2022/04/30 09:38:53;;;;;;;5.30;3.45;;;;;;;11.15;nan;102807.59;5030443;28;20072;-51
2022/04/30 09:41:26;;;;;;;3.58;2.72;;;;;;;11.12;nan;102761.94;5031375;28;20042;-52
2022/04/30 09:44:06;;;;;;;4.95;3.17;;;;;;;11.78;nan;102819.63;5031624;28;20032;-55
2022/04/30 09:46:36;;;;;;;6.72;3.88;;;;;;;11.41;nan;102777.63;5014354;28;20306;-54
2022/04/30 09:54:31;;;;;;;6.93;4.05;;;;;;;11.38;nan;102819.81;4994912;28;20038;-52
2022/04/30 09:56:58;;;;;;;5.18;3.85;;;;;;;11.41;nan;102810.13;5029656;28;20342;-56
2022/04/30 09:59:25;;;;;;;6.97;3.90;;;;;;;11.45;nan;102809.22;5029864;28;20420;-52
2022/04/30 10:01:51;;;;;;;4.68;3.88;;;;;;;11.67;nan;102799.44;5031143;28;20029;-48
2022/04/30 10:04:18;;;;;;;6.78;4.35;;;;;;;11.75;nan;102813.50;5031362;28;20038;-49
2022/04/30 10:06:45;;;;;;;6.82;4.43;;;;;;;11.71;nan;102804.72;5031272;28;20041;-51
2022/04/30 10:09:14;;;;;;;5.65;4.57;;;;;;;11.50;nan;102762.59;5013422;28;20420;-46
2022/04/30 10:11:48;;;;;;;5.55;4.57;;;;;;;11.68;nan;102809.97;5013621;28;20429;-50
2022/04/30 10:14:22;;;;;;;6.32;4.82;;;;;;;11.32;nan;102802.25;5031476;28;20049;-52
2022/04/30 10:17:10;;;;;;;8.77;5.57;;;;;;;11.30;nan;102756.56;5013819;28;20037;-52
2022/04/30 10:19:33;;;;;;;5.85;3.70;;;;;;;11.12;nan;102725.03;5016287;28;20050;-55
2022/04/30 10:22:15;;;;;;;5.15;2.65;;;;;;;11.52;nan;102783.69;5031367;28;20341;-52
2022/04/30 10:24:46;;;;;;;4.32;2.08;;;;;;;11.18;nan;102730.25;5031436;28;20053;-54
2022/04/30 10:27:11;;;;;;;4.87;2.23;;;;;;;11.50;nan;102798.66;5030090;28;20108;-49
2022/04/30 10:29:37;;;;;;;2.47;2.20;;;;;;;11.71;nan;102773.06;5030854;28;20060;-51
2022/04/30 10:32:03;;;;;;;4.13;2.00;;;;;;;11.91;nan;102788.75;5034913;28;20087;-51
2022/04/30 10:34:30;;;;;;;4.78;2.53;;;;;;;11.64;nan;102730.88;5033410;28;20040;-52
2022/04/30 10:36:55;;;;;;;3.08;1.85;;;;;;;11.87;nan;102784.41;5034815;28;20053;-48
2022/04/30 10:39:21;;;;;;;7.90;2.15;;;;;;;11.44;nan;102720.44;5030582;28;20058;-50
2022/04/30 10:41:50;;;;;;;4.60;2.22;;;;;;;11.81;nan;102784.44;5030497;28;20412;-49
2022/04/30 10:44:27;;;;;;;3.10;2.17;;;;;;;11.70;nan;102760.75;5015122;28;20041;-47
2022/04/30 10:46:52;;;;;;;4.65;2.38;;;;;;;11.97;nan;102779.91;5015088;28;20049;-50
2022/04/30 10:49:18;;;;;;;5.60;2.42;;;;;;;12.29;nan;102769.97;5013595;28;20038;-46
2022/04/30 10:51:44;;;;;;;5.72;2.53;;;;;;;12.28;nan;102768.22;5014702;28;20041;-46
2022/04/30 10:54:18;;;;;;;3.92;2.20;;;;;;;12.05;nan;102784.28;5014465;28;20057;-46
2022/04/30 10:56:44;;;;;;;4.95;2.63;;;;;;;12.00;nan;102766.69;5014736;28;20125;-52
2022/04/30 10:59:10;;;;;;;5.20;2.40;;;;;;;11.64;nan;102707.13;5013542;28;20041;-53
2022/04/30 11:01:35;;;;;;;5.10;2.30;;;;;;;12.00;nan;102774.59;5014966;28;20038;-50
2022/04/30 11:04:01;;;;;;;5.13;2.30;;;;;;;11.66;nan;102700.97;5014770;28;20500;-55
2022/04/30 11:06:32;;;;;;;5.30;2.25;;;;;;;11.83;nan;102703.50;5014558;28;20444;-57
2022/04/30 11:09:05;;;;;;;4.20;2.27;;;;;;;12.46;nan;102791.84;5014561;28;20393;-57
2022/04/30 11:11:31;;;;;;;5.97;2.50;;;;;;;12.92;nan;102787.84;5015162;28;20277;-55
2022/04/30 11:14:07;;;;;;;2.35;1.50;;;;;;;13.38;nan;102796.13;5013566;28;20118;-51
2022/04/30 11:16:41;;;;;;;4.13;2.42;;;;;;;13.84;nan;102727.50;5014837;28;20030;-52
2022/04/30 11:19:11;;;;;;;1.63;1.50;;;;;;;14.42;nan;102796.31;5014704;28;20030;-54
2022/04/30 11:21:38;;;;;;;2.47;1.50;;;;;;;13.82;nan;102790.19;5014786;28;20034;-59
2022/04/30 11:24:05;;;;;;;1.88;1.38;;;;;;;14.58;nan;102811.06;5013259;28;20053;-59
2022/04/30 11:26:35;;;;;;;4.05;1.85;;;;;;;14.07;nan;102794.22;5014442;28;20045;-54
2022/04/30 11:29:01;;;;;;;2.80;1.77;;;;;;;14.23;nan;102796.63;5012944;28;20465;-55
2022/04/30 11:31:26;;;;;;;2.55;1.88;;;;;;;14.68;nan;102745.50;5029313;28;20061;-55
2022/04/30 11:33:51;;;;;;;3.53;1.70;;;;;;;15.90;nan;102807.47;5013930;28;20453;-57
2022/04/30 11:36:18;;;;;;;1.80;1.40;;;;;;;16.47;nan;102798.06;5029041;28;20543;-59
2022/04/30 11:38:50;;;;;;;2.20;1.05;;;;;;;16.12;nan;102732.53;5020352;28;20046;-54
2022/04/30 11:41:16;;;;;;;5.20;1.20;;;;;;;16.57;nan;102796.06;5034065;28;20211;-57
2022/04/30 11:43:41;;;;;;;1.45;1.00;;;;;;;16.61;nan;102780.00;5032803;28;20196;-57
2022/04/30 11:46:06;;;;;;;1.83;0.80;;;;;;;16.20;nan;102802.28;5033642;28;20044;-59
2022/04/30 11:48:40;;;;;;;1.85;0.82;;;;;;;14.92;nan;102739.69;5033803;28;20037;-57
2022/04/30 11:51:07;;;;;;;1.42;0.93;;;;;;;15.32;nan;102794.59;5016244;28;20030;-57
2022/04/30 11:53:33;;;;;;;1.58;0.80;;;;;;;14.98;nan;102789.97;5016023;28;20068;-56
2022/04/30 11:55:58;;;;;;;3.40;0.82;;;;;;;14.69;nan;102794.06;5033705;28;20124;-57
2022/04/30 11:58:24;;;;;;;1.50;1.05;;;;;;;15.26;nan;102800.03;5032338;28;20161;-57
2022/04/30 12:00:52;;;;;;;1.67;1.20;;;;;;;16.05;nan;102777.91;5032551;28;20036;-59
2022/04/30 12:03:27;;;;;;;2.47;1.30;;;;;;;16.85;nan;102781.13;5033359;28;20109;-56
2022/04/30 12:05:53;;;;;;;2.88;0.98;;;;;;;16.66;nan;102791.41;5015302;28;20056;-59
2022/04/30 12:08:18;;;;;;;1.83;1.30;;;;;;;15.75;nan;102784.81;5033539;28;20033;-60
2022/04/30 12:10:54;;;;;;;3.58;1.30;;;;;;;16.00;nan;102779.75;5033324;28;20041;-60
2022/04/30 12:13:25;;;;;;;2.17;1.38;;;;;;;15.99;nan;102723.16;5032717;28;20453;-55
2022/04/30 12:16:02;;;;;;;2.63;1.58;;;;;;;16.64;nan;102777.25;5032879;28;20033;-56
2022/04/30 12:27:02;;;;;;;2.05;1.50;;;;;;;16.31;nan;102770.16;5033132;28;20641;-57
2022/04/30 12:29:27;;;;;;;7.78;2.30;;;;;;;16.33;nan;102760.34;5015767;28;20045;-56